sensor_id;sensor_type;location;lat;lon;timestamp;pressure;altitude;pressure_sealevel;temperature;humidity
65329;BME280;51941;52.210;5.158;2022-08-11T00:01:06;102206.56;;;19.46;67.71
65329;BME280;51941;52.210;5.158;2022-08-11T00:03:34;102282.22;;;20.02;67.85
65329;BME280;51941;52.210;5.158;2022-08-11T00:06:02;102148.81;;;19.12;67.79
65329;BME280;51941;52.210;5.158;2022-08-11T00:08:30;102197.38;;;19.37;67.86
65329;BME280;51941;52.210;5.158;2022-08-11T00:11:02;102249.75;;;19.77;68.27
65329;BME280;51941;52.210;5.158;2022-08-11T00:13:32;102283.78;;;19.93;68.02
65329;BME280;51941;52.210;5.158;2022-08-11T00:15:59;102274.09;;;19.92;68.33
65329;BME280;51941;52.210;5.158;2022-08-11T00:18:27;102280.47;;;19.86;68.18
65329;BME280;51941;52.210;5.158;2022-08-11T00:20:58;102247.75;;;19.57;68.32
65329;BME280;51941;52.210;5.158;2022-08-11T00:23:26;102287.69;;;19.80;68.54
65329;BME280;51941;52.210;5.158;2022-08-11T00:25:53;102280.41;;;19.76;68.43
65329;BME280;51941;52.210;5.158;2022-08-11T00:28:37;102225.88;;;19.43;68.57
65329;BME280;51941;52.210;5.158;2022-08-11T00:31:06;102280.91;;;19.73;68.77
65329;BME280;51941;52.210;5.158;2022-08-11T00:33:36;102284.09;;;19.70;69.23
65329;BME280;51941;52.210;5.158;2022-08-11T00:36:04;102012.75;;;17.95;68.47
65329;BME280;51941;52.210;5.158;2022-08-11T00:38:35;102023.78;;;17.98;68.64
65329;BME280;51941;52.210;5.158;2022-08-11T00:41:21;101968.22;;;17.67;68.58
65329;BME280;51941;52.210;5.158;2022-08-11T00:44:26;102006.22;;;17.86;68.50
65329;BME280;51941;52.210;5.158;2022-08-11T00:47:03;102045.69;;;17.95;68.57
65329;BME280;51941;52.210;5.158;2022-08-11T00:49:42;102296.84;;;19.52;68.87
65329;BME280;51941;52.210;5.158;2022-08-11T00:52:19;102207.88;;;18.90;69.30
65329;BME280;51941;52.210;5.158;2022-08-11T00:55:10;102289.56;;;19.48;69.73
65329;BME280;51941;52.210;5.158;2022-08-11T00:58:04;102253.53;;;19.17;69.85
65329;BME280;51941;52.210;5.158;2022-08-11T01:00:57;102208.66;;;18.85;70.06
65329;BME280;51941;52.210;5.158;2022-08-11T01:03:46;102185.59;;;18.63;69.92
65329;BME280;51941;52.210;5.158;2022-08-11T01:06:30;102203.50;;;18.79;70.31
65329;BME280;51941;52.210;5.158;2022-08-11T01:09:32;102294.28;;;19.36;70.11
65329;BME280;51941;52.210;5.158;2022-08-11T01:12:29;102209.16;;;18.82;70.17
65329;BME280;51941;52.210;5.158;2022-08-11T01:18:20;102201.78;;;18.68;70.37
65329;BME280;51941;52.210;5.158;2022-08-11T01:21:26;102282.56;;;19.20;70.67
65329;BME280;51941;52.210;5.158;2022-08-11T01:24:29;102284.66;;;19.18;70.90
65329;BME280;51941;52.210;5.158;2022-08-11T01:27:15;102273.91;;;19.13;70.91
65329;BME280;51941;52.210;5.158;2022-08-11T01:43:09;102274.53;;;18.98;71.01
65329;BME280;51941;52.210;5.158;2022-08-11T01:46:00;102207.44;;;18.49;70.96
65329;BME280;51941;52.210;5.158;2022-08-11T01:48:40;102270.16;;;18.92;71.00
65329;BME280;51941;52.210;5.158;2022-08-11T01:51:16;102279.28;;;18.91;71.00
65329;BME280;51941;52.210;5.158;2022-08-11T01:53:51;102194.00;;;18.28;71.25
65329;BME280;51941;52.210;5.158;2022-08-11T01:56:31;102269.31;;;18.86;71.22
65329;BME280;51941;52.210;5.158;2022-08-11T01:59:14;102183.28;;;18.28;71.10
65329;BME280;51941;52.210;5.158;2022-08-11T02:01:59;102270.63;;;18.84;71.37
65329;BME280;51941;52.210;5.158;2022-08-11T02:04:32;102237.06;;;18.60;71.50
65329;BME280;51941;52.210;5.158;2022-08-11T02:07:09;102259.03;;;18.78;71.65
65329;BME280;51941;52.210;5.158;2022-08-11T02:09:52;102265.44;;;18.77;71.57
65329;BME280;51941;52.210;5.158;2022-08-11T02:12:46;102103.91;;;17.61;71.35
65329;BME280;51941;52.210;5.158;2022-08-11T02:15:25;102195.63;;;18.29;71.31
65329;BME280;51941;52.210;5.158;2022-08-11T02:18:03;102240.75;;;18.53;71.54
65329;BME280;51941;52.210;5.158;2022-08-11T02:20:36;102174.09;;;18.02;71.22
65329;BME280;51941;52.210;5.158;2022-08-11T02:23:28;102250.16;;;18.56;71.23
65329;BME280;51941;52.210;5.158;2022-08-11T02:26:13;102228.16;;;18.37;71.37
65329;BME280;51941;52.210;5.158;2022-08-11T02:28:50;102259.06;;;18.62;71.68
65329;BME280;51941;52.210;5.158;2022-08-11T02:34:37;102148.66;;;17.83;71.74
65329;BME280;51941;52.210;5.158;2022-08-11T02:37:15;102239.91;;;18.31;71.95
65329;BME280;51941;52.210;5.158;2022-08-11T02:39:49;102005.69;;;16.90;71.87
65329;BME280;51941;52.210;5.158;2022-08-11T02:42:25;102257.34;;;18.50;71.62
65329;BME280;51941;52.210;5.158;2022-08-11T02:45:15;102262.34;;;18.47;72.53
65329;BME280;51941;52.210;5.158;2022-08-11T02:47:55;102255.88;;;18.43;72.68
65329;BME280;51941;52.210;5.158;2022-08-11T02:50:52;102253.69;;;18.40;72.39
65329;BME280;51941;52.210;5.158;2022-08-11T02:53:30;102258.22;;;18.39;72.56
65329;BME280;51941;52.210;5.158;2022-08-11T02:56:05;102254.16;;;18.37;72.92
65329;BME280;51941;52.210;5.158;2022-08-11T02:58:40;102257.09;;;18.35;72.66
65329;BME280;51941;52.210;5.158;2022-08-11T03:01:17;102242.34;;;18.33;72.72
65329;BME280;51941;52.210;5.158;2022-08-11T03:03:50;102186.88;;;17.95;72.47
65329;BME280;51941;52.210;5.158;2022-08-11T03:06:27;102195.47;;;17.97;72.73
65329;BME280;51941;52.210;5.158;2022-08-11T03:09:02;102248.66;;;18.27;72.94
65329;BME280;51941;52.210;5.158;2022-08-11T03:11:41;102250.53;;;18.26;72.87
65329;BME280;51941;52.210;5.158;2022-08-11T03:14:34;102249.41;;;18.22;72.75
65329;BME280;51941;52.210;5.158;2022-08-11T03:17:28;102222.31;;;18.02;72.86
65329;BME280;51941;52.210;5.158;2022-08-11T03:20:13;102062.25;;;16.98;72.79
65329;BME280;51941;52.210;5.158;2022-08-11T03:22:50;102242.63;;;18.14;73.00
65329;BME280;51941;52.210;5.158;2022-08-11T03:25:26;102240.41;;;18.11;72.88
65329;BME280;51941;52.210;5.158;2022-08-11T03:28:07;102225.59;;;17.87;73.36
65329;BME280;51941;52.210;5.158;2022-08-11T03:30:45;102259.59;;;18.03;73.24
65329;BME280;51941;52.210;5.158;2022-08-11T03:33:21;102242.94;;;18.01;73.35
65329;BME280;51941;52.210;5.158;2022-08-11T03:36:19;102190.41;;;17.62;73.55
65329;BME280;51941;52.210;5.158;2022-08-11T03:39:00;102208.56;;;17.76;73.51
65329;BME280;51941;52.210;5.158;2022-08-11T03:41:35;102247.38;;;17.91;73.96
65329;BME280;51941;52.210;5.158;2022-08-11T03:44:27;102236.09;;;17.89;74.36
65329;BME280;51941;52.210;5.158;2022-08-11T03:50:00;102232.03;;;17.69;74.24
65329;BME280;51941;52.210;5.158;2022-08-11T03:52:40;102247.75;;;17.83;74.54
65329;BME280;51941;52.210;5.158;2022-08-11T03:55:14;102247.22;;;17.81;74.33
65329;BME280;51941;52.210;5.158;2022-08-11T03:58:14;102239.41;;;17.79;74.94
65329;BME280;51941;52.210;5.158;2022-08-11T04:01:01;102186.81;;;17.39;75.18
65329;BME280;51941;52.210;5.158;2022-08-11T04:04:05;102241.53;;;17.77;74.63
65329;BME280;51941;52.210;5.158;2022-08-11T04:07:17;102227.72;;;17.68;74.82
65329;BME280;51941;52.210;5.158;2022-08-11T04:10:21;102246.53;;;17.73;75.08
65329;BME280;51941;52.210;5.158;2022-08-11T04:25:23;102218.63;;;17.53;75.36
65329;BME280;51941;52.210;5.158;2022-08-11T04:28:10;102197.03;;;17.42;75.28
65329;BME280;51941;52.210;5.158;2022-08-11T04:30:58;102165.31;;;17.18;75.28
65329;BME280;51941;52.210;5.158;2022-08-11T04:33:48;102236.16;;;17.60;75.39
65329;BME280;51941;52.210;5.158;2022-08-11T04:36:36;102234.31;;;17.61;75.38
65329;BME280;51941;52.210;5.158;2022-08-11T04:39:38;102231.28;;;17.57;75.23
65329;BME280;51941;52.210;5.158;2022-08-11T04:42:39;102233.72;;;17.59;75.50
65329;BME280;51941;52.210;5.158;2022-08-11T04:45:55;102230.81;;;17.60;75.39
65329;BME280;51941;52.210;5.158;2022-08-11T04:51:59;102232.19;;;17.63;75.38
65329;BME280;51941;52.210;5.158;2022-08-11T04:54:54;102225.53;;;17.65;75.00
65329;BME280;51941;52.210;5.158;2022-08-11T04:58:10;102225.69;;;17.59;75.09
65329;BME280;51941;52.210;5.158;2022-08-11T05:01:09;102238.19;;;17.70;74.96
65329;BME280;51941;52.210;5.158;2022-08-11T05:04:20;102233.16;;;17.73;74.92
65329;BME280;51941;52.210;5.158;2022-08-11T05:07:42;102072.13;;;16.81;74.74
65329;BME280;51941;52.210;5.158;2022-08-11T05:10:24;102147.16;;;17.36;74.54
65329;BME280;51941;52.210;5.158;2022-08-11T05:12:56;102165.97;;;17.58;73.99
65329;BME280;51941;52.210;5.158;2022-08-11T05:15:51;102233.16;;;17.90;73.93
65329;BME280;51941;52.210;5.158;2022-08-11T05:18:44;102214.22;;;17.97;73.67
65329;BME280;51941;52.210;5.158;2022-08-11T05:21:30;102073.13;;;17.09;73.75
65329;BME280;51941;52.210;5.158;2022-08-11T05:24:16;102205.53;;;18.06;73.61
65329;BME280;51941;52.210;5.158;2022-08-11T05:27:06;102226.97;;;18.28;73.25
65329;BME280;51941;52.210;5.158;2022-08-11T05:29:57;102252.00;;;18.34;73.22
65329;BME280;51941;52.210;5.158;2022-08-11T05:32:56;102234.59;;;18.36;72.74
65329;BME280;51941;52.210;5.158;2022-08-11T05:35:43;102235.41;;;18.37;72.65
65329;BME280;51941;52.210;5.158;2022-08-11T05:38:12;102241.38;;;18.44;72.59
65329;BME280;51941;52.210;5.158;2022-08-11T05:40:59;102238.47;;;18.45;72.42
65329;BME280;51941;52.210;5.158;2022-08-11T05:43:44;102236.03;;;18.44;72.00
65329;BME280;51941;52.210;5.158;2022-08-11T05:46:29;102231.34;;;18.51;71.83
65329;BME280;51941;52.210;5.158;2022-08-11T05:49:28;102243.25;;;18.60;71.62
65329;BME280;51941;52.210;5.158;2022-08-11T05:52:14;102237.75;;;18.72;71.42
65329;BME280;51941;52.210;5.158;2022-08-11T05:55:02;102205.94;;;18.59;71.26
65329;BME280;51941;52.210;5.158;2022-08-11T05:57:46;102211.69;;;18.67;70.83
65329;BME280;51941;52.210;5.158;2022-08-11T06:00:14;102230.13;;;18.85;70.70
65329;BME280;51941;52.210;5.158;2022-08-11T06:02:41;102155.09;;;18.47;70.39
65329;BME280;51941;52.210;5.158;2022-08-11T06:05:11;102087.22;;;18.20;70.03
65329;BME280;51941;52.210;5.158;2022-08-11T06:07:38;102199.59;;;18.91;69.67
65329;BME280;51941;52.210;5.158;2022-08-11T06:10:06;102241.81;;;19.28;69.21
65329;BME280;51941;52.210;5.158;2022-08-11T06:12:34;102248.38;;;19.37;68.96
65329;BME280;51941;52.210;5.158;2022-08-11T06:15:05;102246.03;;;19.46;68.05
65329;BME280;51941;52.210;5.158;2022-08-11T06:17:34;102261.44;;;19.55;67.81
65329;BME280;51941;52.210;5.158;2022-08-11T06:20:04;102062.09;;;18.47;67.07
65329;BME280;51941;52.210;5.158;2022-08-11T06:22:32;102245.19;;;19.77;66.50
65329;BME280;51941;52.210;5.158;2022-08-11T06:25:02;102220.75;;;19.74;66.29
65329;BME280;51941;52.210;5.158;2022-08-11T06:27:32;102259.34;;;20.47;66.04
65329;BME280;51941;52.210;5.158;2022-08-11T06:30:00;102164.25;;;20.93;64.06
65329;BME280;51941;52.210;5.158;2022-08-11T06:32:31;102250.28;;;22.60;60.43
65329;BME280;51941;52.210;5.158;2022-08-11T06:35:17;102202.25;;;23.41;57.45
65329;BME280;51941;52.210;5.158;2022-08-11T06:37:56;102253.19;;;24.63;53.73
65329;BME280;51941;52.210;5.158;2022-08-11T06:40:35;102252.28;;;25.23;51.18
65329;BME280;51941;52.210;5.158;2022-08-11T06:43:08;102262.72;;;25.68;50.12
65329;BME280;51941;52.210;5.158;2022-08-11T06:45:41;102183.75;;;25.55;49.05
65329;BME280;51941;52.210;5.158;2022-08-11T06:48:15;102232.25;;;26.17;48.73
65329;BME280;51941;52.210;5.158;2022-08-11T06:50:48;102158.97;;;25.89;46.40
65329;BME280;51941;52.210;5.158;2022-08-11T06:53:35;102185.88;;;26.54;46.80
65329;BME280;51941;52.210;5.158;2022-08-11T06:56:06;102220.94;;;27.00;45.93
65329;BME280;51941;52.210;5.158;2022-08-11T06:58:52;102256.50;;;27.49;44.60
65329;BME280;51941;52.210;5.158;2022-08-11T07:01:42;102257.94;;;27.77;43.54
65329;BME280;51941;52.210;5.158;2022-08-11T07:04:17;102176.50;;;27.50;42.71
65329;BME280;51941;52.210;5.158;2022-08-11T07:07:17;102254.63;;;28.19;40.85
65329;BME280;51941;52.210;5.158;2022-08-11T07:10:24;102122.16;;;27.58;41.38
65329;BME280;51941;52.210;5.158;2022-08-11T07:13:13;102261.94;;;28.59;41.43
65329;BME280;51941;52.210;5.158;2022-08-11T07:15:58;102241.56;;;28.56;41.43
65329;BME280;51941;52.210;5.158;2022-08-11T07:18:28;102190.72;;;28.34;41.27
65329;BME280;51941;52.210;5.158;2022-08-11T07:21:15;102256.03;;;28.82;40.80
65329;BME280;51941;52.210;5.158;2022-08-11T07:24:08;102261.38;;;29.05;39.96
65329;BME280;51941;52.210;5.158;2022-08-11T07:26:56;102229.75;;;29.04;40.33
65329;BME280;51941;52.210;5.158;2022-08-11T07:29:45;102256.03;;;29.34;39.81
65329;BME280;51941;52.210;5.158;2022-08-11T07:32:19;102181.31;;;29.01;38.51
65329;BME280;51941;52.210;5.158;2022-08-11T07:34:51;102268.13;;;29.80;38.35
65329;BME280;51941;52.210;5.158;2022-08-11T07:37:23;102263.34;;;30.15;37.57
65329;BME280;51941;52.210;5.158;2022-08-11T07:39:52;102216.53;;;29.95;37.36
65329;BME280;51941;52.210;5.158;2022-08-11T07:42:30;102041.19;;;28.93;36.13
65329;BME280;51941;52.210;5.158;2022-08-11T07:45:03;102226.19;;;30.31;36.72
65329;BME280;51941;52.210;5.158;2022-08-11T07:47:57;102050.16;;;29.40;36.13
65329;BME280;51941;52.210;5.158;2022-08-11T07:50:42;102259.69;;;30.69;35.79
65329;BME280;51941;52.210;5.158;2022-08-11T07:53:28;102238.50;;;30.66;35.96
65329;BME280;51941;52.210;5.158;2022-08-11T07:55:59;102222.31;;;30.53;35.77
65329;BME280;51941;52.210;5.158;2022-08-11T07:58:28;102198.16;;;30.63;35.94
65329;BME280;51941;52.210;5.158;2022-08-11T08:01:18;102199.94;;;30.80;35.15
65329;BME280;51941;52.210;5.158;2022-08-11T08:04:04;102246.38;;;31.22;34.81
65329;BME280;51941;52.210;5.158;2022-08-11T08:06:49;102213.63;;;31.13;34.85
65329;BME280;51941;52.210;5.158;2022-08-11T08:09:34;102210.97;;;31.04;34.88
65329;BME280;51941;52.210;5.158;2022-08-11T08:12:21;102233.63;;;31.26;34.55
65329;BME280;51941;52.210;5.158;2022-08-11T08:15:09;102176.31;;;30.96;34.31
65329;BME280;51941;52.210;5.158;2022-08-11T08:17:54;102264.88;;;31.37;33.77
65329;BME280;51941;52.210;5.158;2022-08-11T08:20:23;102265.59;;;31.34;33.16
65329;BME280;51941;52.210;5.158;2022-08-11T08:22:52;102261.19;;;31.54;34.15
65329;BME280;51941;52.210;5.158;2022-08-11T08:25:23;102198.88;;;31.26;33.93
65329;BME280;51941;52.210;5.158;2022-08-11T08:27:51;102140.19;;;30.91;33.90
65329;BME280;51941;52.210;5.158;2022-08-11T08:30:21;101939.59;;;29.63;33.51
65329;BME280;51941;52.210;5.158;2022-08-11T08:33:08;101923.13;;;29.60;33.56
65329;BME280;51941;52.210;5.158;2022-08-11T08:35:36;101931.44;;;29.63;33.59
65329;BME280;51941;52.210;5.158;2022-08-11T08:38:04;101907.69;;;29.35;33.04
65329;BME280;51941;52.210;5.158;2022-08-11T08:40:32;101948.56;;;29.43;33.17
65329;BME280;51941;52.210;5.158;2022-08-11T08:43:02;102138.47;;;30.45;33.96
65329;BME280;51941;52.210;5.158;2022-08-11T08:45:34;102261.22;;;30.79;33.85
65329;BME280;51941;52.210;5.158;2022-08-11T08:48:05;102082.31;;;29.17;34.80
65329;BME280;51941;52.210;5.158;2022-08-11T08:50:36;101930.00;;;27.88;35.06
65329;BME280;51941;52.210;5.158;2022-08-11T08:53:33;102247.66;;;29.65;35.16
65329;BME280;51941;52.210;5.158;2022-08-11T08:56:02;102104.09;;;28.36;35.54
65329;BME280;51941;52.210;5.158;2022-08-11T08:58:30;102169.94;;;28.55;36.23
65329;BME280;51941;52.210;5.158;2022-08-11T09:01:00;102188.22;;;28.46;36.05
65329;BME280;51941;52.210;5.158;2022-08-11T09:03:27;102134.63;;;27.99;36.49
65329;BME280;51941;52.210;5.158;2022-08-11T09:05:55;102244.94;;;28.53;36.91
65329;BME280;51941;52.210;5.158;2022-08-11T09:08:23;102075.91;;;27.58;36.72
65329;BME280;51941;52.210;5.158;2022-08-11T09:10:54;102005.31;;;27.05;36.44
65329;BME280;51941;52.210;5.158;2022-08-11T09:13:35;102076.81;;;27.45;36.70
65329;BME280;51941;52.210;5.158;2022-08-11T09:16:05;102241.75;;;28.77;36.54
65329;BME280;51941;52.210;5.158;2022-08-11T09:18:36;101998.94;;;27.09;36.39
65329;BME280;51941;52.210;5.158;2022-08-11T09:21:03;102241.94;;;28.80;36.61
65329;BME280;51941;52.210;5.158;2022-08-11T09:23:31;101891.19;;;26.65;36.52
65329;BME280;51941;52.210;5.158;2022-08-11T09:26:16;102167.81;;;28.27;36.58
65329;BME280;51941;52.210;5.158;2022-08-11T09:29:02;102156.44;;;28.33;35.88
65329;BME280;51941;52.210;5.158;2022-08-11T09:31:32;102097.78;;;27.93;36.10
65329;BME280;51941;52.210;5.158;2022-08-11T09:33:59;102111.09;;;28.11;36.48
65329;BME280;51941;52.210;5.158;2022-08-11T09:36:28;102223.00;;;28.92;36.06
65329;BME280;51941;52.210;5.158;2022-08-11T09:39:13;102032.75;;;27.74;35.64
65329;BME280;51941;52.210;5.158;2022-08-11T09:41:59;102195.13;;;28.70;36.32
65329;BME280;51941;52.210;5.158;2022-08-11T09:44:30;102190.47;;;28.62;36.16
65329;BME280;51941;52.210;5.158;2022-08-11T09:47:22;102194.50;;;28.73;36.16
65329;BME280;51941;52.210;5.158;2022-08-11T09:49:51;102120.41;;;28.19;35.76
65329;BME280;51941;52.210;5.158;2022-08-11T09:52:18;102216.13;;;28.69;35.67
65329;BME280;51941;52.210;5.158;2022-08-11T09:54:47;102106.44;;;28.03;35.35
65329;BME280;51941;52.210;5.158;2022-08-11T09:57:18;102096.69;;;28.11;35.20
65329;BME280;51941;52.210;5.158;2022-08-11T10:00:06;101979.72;;;27.45;35.18
65329;BME280;51941;52.210;5.158;2022-08-11T10:02:40;102190.16;;;28.89;34.41
65329;BME280;51941;52.210;5.158;2022-08-11T10:05:08;102098.16;;;28.34;34.81
65329;BME280;51941;52.210;5.158;2022-08-11T10:07:55;102087.88;;;28.14;34.41
65329;BME280;51941;52.210;5.158;2022-08-11T10:10:23;102193.34;;;28.82;34.03
65329;BME280;51941;52.210;5.158;2022-08-11T10:12:57;102032.63;;;28.05;33.69
65329;BME280;51941;52.210;5.158;2022-08-11T10:15:27;101832.47;;;26.87;33.57
65329;BME280;51941;52.210;5.158;2022-08-11T10:18:18;102114.47;;;28.86;32.76
65329;BME280;51941;52.210;5.158;2022-08-11T10:21:17;101842.94;;;27.19;33.26
65329;BME280;51941;52.210;5.158;2022-08-11T10:23:51;101981.06;;;28.08;33.41
65329;BME280;51941;52.210;5.158;2022-08-11T10:26:49;102197.44;;;29.57;33.60
65329;BME280;51941;52.210;5.158;2022-08-11T10:29:21;102201.56;;;29.63;33.38
65329;BME280;51941;52.210;5.158;2022-08-11T10:32:07;102157.38;;;29.32;32.77
65329;BME280;51941;52.210;5.158;2022-08-11T10:34:55;102119.28;;;29.06;32.91
65329;BME280;51941;52.210;5.158;2022-08-11T10:37:23;102096.69;;;28.80;34.07
65329;BME280;51941;52.210;5.158;2022-08-11T10:39:52;102081.97;;;28.72;33.41
65329;BME280;51941;52.210;5.158;2022-08-11T10:42:21;101876.69;;;27.27;33.30
65329;BME280;51941;52.210;5.158;2022-08-11T10:45:07;102079.06;;;28.77;32.84
65329;BME280;51941;52.210;5.158;2022-08-11T10:47:56;102098.59;;;28.88;32.58
65329;BME280;51941;52.210;5.158;2022-08-11T10:50:24;101852.72;;;27.46;31.77
65329;BME280;51941;52.210;5.158;2022-08-11T10:53:09;102111.53;;;29.17;31.89
65329;BME280;51941;52.210;5.158;2022-08-11T10:55:55;102180.03;;;29.71;32.06
65329;BME280;51941;52.210;5.158;2022-08-11T10:58:40;102158.75;;;29.47;31.94
65329;BME280;51941;52.210;5.158;2022-08-11T11:01:21;102152.50;;;29.55;31.82
65329;BME280;51941;52.210;5.158;2022-08-11T11:03:50;102123.78;;;29.49;32.15
65329;BME280;51941;52.210;5.158;2022-08-11T11:06:32;102178.38;;;29.87;31.43
65329;BME280;51941;52.210;5.158;2022-08-11T11:09:03;102163.88;;;29.95;31.69
65329;BME280;51941;52.210;5.158;2022-08-11T11:11:34;102091.03;;;29.57;31.69
65329;BME280;51941;52.210;5.158;2022-08-11T11:14:21;102122.03;;;29.82;31.08
65329;BME280;51941;52.210;5.158;2022-08-11T11:17:07;102171.03;;;30.08;30.50
65329;BME280;51941;52.210;5.158;2022-08-11T11:19:56;102152.88;;;30.12;30.18
65329;BME280;51941;52.210;5.158;2022-08-11T11:22:27;102155.88;;;30.19;30.23
65329;BME280;51941;52.210;5.158;2022-08-11T11:25:09;102137.63;;;30.11;29.96
65329;BME280;51941;52.210;5.158;2022-08-11T11:27:52;102148.84;;;30.10;29.59
65329;BME280;51941;52.210;5.158;2022-08-11T11:30:27;102158.59;;;30.19;28.87
65329;BME280;51941;52.210;5.158;2022-08-11T11:33:01;102128.63;;;30.11;29.23
65329;BME280;51941;52.210;5.158;2022-08-11T11:35:37;102157.06;;;30.30;28.63
65329;BME280;51941;52.210;5.158;2022-08-11T11:38:10;102036.41;;;29.66;29.05
65329;BME280;51941;52.210;5.158;2022-08-11T11:40:39;102153.16;;;30.40;28.96
65329;BME280;51941;52.210;5.158;2022-08-11T11:43:06;102157.19;;;30.34;28.55
65329;BME280;51941;52.210;5.158;2022-08-11T11:45:34;101994.31;;;29.38;28.68
65329;BME280;51941;52.210;5.158;2022-08-11T11:48:02;101872.41;;;28.50;29.22
65329;BME280;51941;52.210;5.158;2022-08-11T11:50:31;102024.53;;;29.62;29.03
65329;BME280;51941;52.210;5.158;2022-08-11T11:53:02;101951.44;;;29.17;28.90
65329;BME280;51941;52.210;5.158;2022-08-11T11:55:34;101834.63;;;28.40;28.09
65329;BME280;51941;52.210;5.158;2022-08-11T11:58:05;101789.84;;;28.20;28.53
65329;BME280;51941;52.210;5.158;2022-08-11T12:00:50;101786.66;;;28.18;28.76
65329;BME280;51941;52.210;5.158;2022-08-11T12:03:35;101844.97;;;28.84;28.47
65329;BME280;51941;52.210;5.158;2022-08-11T12:06:03;101801.09;;;28.48;28.42
65329;BME280;51941;52.210;5.158;2022-08-11T12:08:31;101880.81;;;29.04;28.21
65329;BME280;51941;52.210;5.158;2022-08-11T12:11:02;102125.66;;;30.78;27.75
65329;BME280;51941;52.210;5.158;2022-08-11T12:13:48;102067.22;;;30.50;27.64
65329;BME280;51941;52.210;5.158;2022-08-11T12:16:18;102118.41;;;30.82;27.72
65329;BME280;51941;52.210;5.158;2022-08-11T12:18:47;102113.13;;;30.77;27.90
65329;BME280;51941;52.210;5.158;2022-08-11T12:21:15;101993.09;;;29.97;27.69
65329;BME280;51941;52.210;5.158;2022-08-11T12:23:48;102062.19;;;30.39;27.26
65329;BME280;51941;52.210;5.158;2022-08-11T12:26:35;101766.16;;;28.79;26.35
65329;BME280;51941;52.210;5.158;2022-08-11T12:29:20;102019.19;;;30.49;26.02
65329;BME280;51941;52.210;5.158;2022-08-11T12:31:50;101768.47;;;28.98;26.26
65329;BME280;51941;52.210;5.158;2022-08-11T12:34:19;102097.59;;;31.14;26.37
65329;BME280;51941;52.210;5.158;2022-08-11T12:36:53;102078.00;;;31.12;26.70
65329;BME280;51941;52.210;5.158;2022-08-11T12:39:22;102010.16;;;30.69;25.95
65329;BME280;51941;52.210;5.158;2022-08-11T12:42:16;101969.31;;;30.39;24.88
65329;BME280;51941;52.210;5.158;2022-08-11T12:45:02;102093.44;;;31.17;25.14
65329;BME280;51941;52.210;5.158;2022-08-11T12:47:48;102082.94;;;31.19;25.25
65329;BME280;51941;52.210;5.158;2022-08-11T12:50:34;102068.53;;;31.09;25.16
65329;BME280;51941;52.210;5.158;2022-08-11T12:53:23;102068.66;;;31.13;25.85
65329;BME280;51941;52.210;5.158;2022-08-11T12:55:52;102048.94;;;31.07;25.61
65329;BME280;51941;52.210;5.158;2022-08-11T12:58:48;102002.06;;;30.72;25.20
65329;BME280;51941;52.210;5.158;2022-08-11T13:01:17;102042.09;;;31.01;25.02
65329;BME280;51941;52.210;5.158;2022-08-11T13:04:03;101987.50;;;30.81;25.23
65329;BME280;51941;52.210;5.158;2022-08-11T13:06:48;101969.28;;;30.72;24.94
65329;BME280;51941;52.210;5.158;2022-08-11T13:09:16;102065.16;;;31.37;24.96
65329;BME280;51941;52.210;5.158;2022-08-11T13:11:44;102056.84;;;31.45;24.51
65329;BME280;51941;52.210;5.158;2022-08-11T13:14:31;101993.66;;;31.02;24.53
65329;BME280;51941;52.210;5.158;2022-08-11T13:16:59;101960.97;;;30.81;24.48
65329;BME280;51941;52.210;5.158;2022-08-11T13:19:44;101929.97;;;30.65;24.86
65329;BME280;51941;52.210;5.158;2022-08-11T13:22:14;102043.38;;;31.40;24.92
65329;BME280;51941;52.210;5.158;2022-08-11T13:24:42;102050.78;;;31.52;24.74
65329;BME280;51941;52.210;5.158;2022-08-11T13:27:09;102046.53;;;31.55;23.95
65329;BME280;51941;52.210;5.158;2022-08-11T13:29:40;101707.50;;;29.48;24.17
65329;BME280;51941;52.210;5.158;2022-08-11T13:32:12;101676.31;;;29.24;24.16
65329;BME280;51941;52.210;5.158;2022-08-11T13:34:40;102047.84;;;31.69;24.12
65329;BME280;51941;52.210;5.158;2022-08-11T13:37:12;101902.63;;;30.77;24.05
65329;BME280;51941;52.210;5.158;2022-08-11T13:39:43;101822.56;;;30.28;24.37
65329;BME280;51941;52.210;5.158;2022-08-11T13:42:12;101782.94;;;30.10;24.36
65329;BME280;51941;52.210;5.158;2022-08-11T13:44:43;101730.22;;;29.60;24.08
65329;BME280;51941;52.210;5.158;2022-08-11T13:47:12;101699.81;;;29.62;24.47
65329;BME280;51941;52.210;5.158;2022-08-11T13:49:40;101768.09;;;29.74;24.04
65329;BME280;51941;52.210;5.158;2022-08-11T13:52:10;102040.72;;;31.56;24.07
65329;BME280;51941;52.210;5.158;2022-08-11T13:54:40;102013.94;;;31.49;24.01
65329;BME280;51941;52.210;5.158;2022-08-11T13:57:09;101719.53;;;29.67;24.28
65329;BME280;51941;52.210;5.158;2022-08-11T13:59:37;101950.25;;;31.12;24.31
65329;BME280;51941;52.210;5.158;2022-08-11T14:02:12;101973.16;;;31.20;23.92
65329;BME280;51941;52.210;5.158;2022-08-11T14:04:42;101866.97;;;30.61;23.63
65329;BME280;51941;52.210;5.158;2022-08-11T14:07:10;101996.97;;;31.44;24.34
65329;BME280;51941;52.210;5.158;2022-08-11T14:09:46;101739.66;;;29.75;23.83
65329;BME280;51941;52.210;5.158;2022-08-11T14:12:20;101756.84;;;29.76;24.14
65329;BME280;51941;52.210;5.158;2022-08-11T14:15:11;101953.22;;;31.20;23.95
65329;BME280;51941;52.210;5.158;2022-08-11T14:17:50;101683.38;;;29.38;24.48
65329;BME280;51941;52.210;5.158;2022-08-11T14:20:19;101671.91;;;29.44;24.55
65329;BME280;51941;52.210;5.158;2022-08-11T14:22:48;101645.66;;;29.40;24.09
65329;BME280;51941;52.210;5.158;2022-08-11T14:25:16;101853.56;;;30.81;24.45
65329;BME280;51941;52.210;5.158;2022-08-11T14:27:44;101950.59;;;31.23;24.29
65329;BME280;51941;52.210;5.158;2022-08-11T14:30:14;101690.53;;;29.75;24.32